Deo Volente — PHFJ — position and weather

sailwx.info

Track history (hours):
 
Tides and Currents Weather Stations Pressure Air Temp Water Temp Dewpoint Dewpoint Depression Visibility Wind Speed Wind Dir Waves Ship Positions

Deo Volente

Last reported at 2015-Jan-25 03:33 UTC. Time now 2015-Jan-25 03:55 UTC.
Position N 55°03' E 009°26'.

Length 105 m; draft 4.8 m.

Type: Cargo ship. MMSI: 246518000.

Date/timePositionNaut miles runAvg speedWind from/ knotsBaromVisibWave heightAir tempDewpointWater temp
2015-Jan-25 03:33N 55°03' E 009°26'0 0.0
2015-Jan-25 02:33N 55°03' E 009°26'0 0.0
2015-Jan-25 01:32N 55°03' E 009°26'0 0.0
2015-Jan-25 00:33N 55°03' E 009°26'0 0.0
2015-Jan-24 23:33N 55°03' E 009°26'0 0.0
2015-Jan-24 22:33N 55°03' E 009°26'0 0.0
2015-Jan-24 21:33N 55°03' E 009°26'0 0.0
2015-Jan-24 20:33N 55°03' E 009°26'0 0.0
2015-Jan-24 19:33N 55°03' E 009°26'0 0.0
2015-Jan-24 18:33N 55°03' E 009°26'0 0.0
2015-Jan-24 17:33N 55°03' E 009°26'0 0.0
2015-Jan-24 16:33N 55°03' E 009°26'0 0.0
2015-Jan-24 15:33N 55°03' E 009°26'0 0.0
2015-Jan-24 14:33N 55°03' E 009°26'0 0.0
2015-Jan-24 13:33N 55°03' E 009°26'0 0.0
2015-Jan-24 12:33N 55°03' E 009°26'0 0.0
2015-Jan-24 11:33N 55°03' E 009°26'0 0.0
2015-Jan-24 10:33N 55°03' E 009°26'3 3.3
2015-Jan-24 09:33N 55°03' E 009°31'8 8.0
2015-Jan-24 08:33N 55°07' E 009°43'8 7.7
2015-Jan-24 07:32N 55°15' E 009°48'114 9.4
2015-Jan-23 19:24N 57°03' E 010°49'3412.1
2015-Jan-23 16:33N 57°37' E 010°43'9 9.3
2015-Jan-23 15:33N 57°47' E 010°43'1111.0
2015-Jan-23 14:33N 57°48' E 010°22'148 3.6
2015-Jan-21 21:18N 57°36' E 005°47'  
2015-Jan-17 03:33N 52°25' E 003°49'1413.8
2015-Jan-17 02:33N 52°11' E 003°54'1111.2
2015-Jan-17 01:33N 52°01' E 003°60'1413.6
2015-Jan-17 00:34N 51°54' E 004°19'4 4.0
2015-Jan-16 23:34N 51°54' E 004°25'0 0.0
2015-Jan-16 22:34N 51°54' E 004°25'0 0.0
2015-Jan-16 21:34N 51°54' E 004°25'0 0.0
2015-Jan-16 20:34N 51°54' E 004°25'0 0.0
2015-Jan-16 19:33N 51°54' E 004°25'0 0.0
2015-Jan-16 18:34N 51°54' E 004°25'0 0.0
2015-Jan-16 17:34N 51°54' E 004°25'0 0.0
2015-Jan-16 16:34N 51°54' E 004°25'0 0.0
2015-Jan-16 15:33N 51°54' E 004°25'4 3.9
2015-Jan-16 14:33N 51°54' E 004°19'10 9.6
2015-Jan-16 13:33N 51°58' E 004°05'1 1.5
2015-Jan-16 12:34N 51°58' E 004°03'0 0.0
2015-Jan-16 11:34N 51°58' E 004°03'0 0.0
2015-Jan-16 10:34N 51°58' E 004°03'0 0.0
2015-Jan-16 09:34N 51°58' E 004°03'0 0.0
2015-Jan-16 08:34N 51°58' E 004°03'0 0.0
2015-Jan-16 07:33N 51°58' E 004°03'0 0.0
2015-Jan-16 06:34N 51°58' E 004°03'0 0.0
2015-Jan-16 05:33N 51°58' E 004°03'0 0.0
2015-Jan-16 04:33N 51°58' E 004°03'0 0.0
2015-Jan-16 03:34N 51°58' E 004°03'0 0.0
2015-Jan-16 02:34N 51°58' E 004°03'0 0.0
2015-Jan-16 01:33N 51°58' E 004°03'0 0.0
2015-Jan-16 00:34N 51°58' E 004°03'0 0.0
2015-Jan-15 23:34N 51°58' E 004°03'0 0.4
2015-Jan-15 22:34N 51°58' E 004°02'6 5.9
2015-Jan-15 21:33N 52°00' E 003°54'1211.6
2015-Jan-15 20:30N 52°12' E 003°47'1211.5
2015-Jan-15 19:29N 52°23' E 003°49'1212.2
2015-Jan-15 18:32N 52°35' E 003°53'1313.2
2015-Jan-15 17:33N 52°48' E 003°56'1313.2
2015-Jan-15 16:33N 52°60' E 004°06'7912.1
2015-Jan-15 10:04N 54°13' E 004°52'  
Track history (hours):
 
Tides and Currents Weather Stations Pressure Air Temp Water Temp Dewpoint Dewpoint Depression Visibility Wind Speed Wind Dir Waves Ship Positions

Deo Volente

Last reported at 2015-Jan-25 03:33 UTC. Time now 2015-Jan-25 03:55 UTC.
Position N 55°03' E 009°26'.

Length 105 m; draft 4.8 m.

Type: Cargo ship. MMSI: 246518000.

Date/timePositionNaut miles runAvg speedWind from/ knotsBaromVisibWave heightAir tempDewpointWater temp
2015-Jan-25 03:33N 55°03' E 009°26'0 0.0
2015-Jan-25 02:33N 55°03' E 009°26'0 0.0
2015-Jan-25 01:32N 55°03' E 009°26'0 0.0
2015-Jan-25 00:33N 55°03' E 009°26'0 0.0
2015-Jan-24 23:33N 55°03' E 009°26'0 0.0
2015-Jan-24 22:33N 55°03' E 009°26'0 0.0
2015-Jan-24 21:33N 55°03' E 009°26'0 0.0
2015-Jan-24 20:33N 55°03' E 009°26'0 0.0
2015-Jan-24 19:33N 55°03' E 009°26'0 0.0
2015-Jan-24 18:33N 55°03' E 009°26'0 0.0
2015-Jan-24 17:33N 55°03' E 009°26'0 0.0
2015-Jan-24 16:33N 55°03' E 009°26'0 0.0
2015-Jan-24 15:33N 55°03' E 009°26'0 0.0
2015-Jan-24 14:33N 55°03' E 009°26'0 0.0
2015-Jan-24 13:33N 55°03' E 009°26'0 0.0
2015-Jan-24 12:33N 55°03' E 009°26'0 0.0
2015-Jan-24 11:33N 55°03' E 009°26'0 0.0
2015-Jan-24 10:33N 55°03' E 009°26'3 3.3
2015-Jan-24 09:33N 55°03' E 009°31'8 8.0
2015-Jan-24 08:33N 55°07' E 009°43'8 7.7
2015-Jan-24 07:32N 55°15' E 009°48'114 9.4
2015-Jan-23 19:24N 57°03' E 010°49'3412.1
2015-Jan-23 16:33N 57°37' E 010°43'9 9.3
2015-Jan-23 15:33N 57°47' E 010°43'1111.0
2015-Jan-23 14:33N 57°48' E 010°22'148 3.6
2015-Jan-21 21:18N 57°36' E 005°47'  
2015-Jan-17 03:33N 52°25' E 003°49'1413.8
2015-Jan-17 02:33N 52°11' E 003°54'1111.2
2015-Jan-17 01:33N 52°01' E 003°60'1413.6
2015-Jan-17 00:34N 51°54' E 004°19'4 4.0
2015-Jan-16 23:34N 51°54' E 004°25'0 0.0
2015-Jan-16 22:34N 51°54' E 004°25'0 0.0
2015-Jan-16 21:34N 51°54' E 004°25'0 0.0
2015-Jan-16 20:34N 51°54' E 004°25'0 0.0
2015-Jan-16 19:33N 51°54' E 004°25'0 0.0
2015-Jan-16 18:34N 51°54' E 004°25'0 0.0
2015-Jan-16 17:34N 51°54' E 004°25'0 0.0
2015-Jan-16 16:34N 51°54' E 004°25'0 0.0
2015-Jan-16 15:33N 51°54' E 004°25'4 3.9
2015-Jan-16 14:33N 51°54' E 004°19'10 9.6
2015-Jan-16 13:33N 51°58' E 004°05'1 1.5
2015-Jan-16 12:34N 51°58' E 004°03'0 0.0
2015-Jan-16 11:34N 51°58' E 004°03'0 0.0
2015-Jan-16 10:34N 51°58' E 004°03'0 0.0
2015-Jan-16 09:34N 51°58' E 004°03'0 0.0
2015-Jan-16 08:34N 51°58' E 004°03'0 0.0
2015-Jan-16 07:33N 51°58' E 004°03'0 0.0
2015-Jan-16 06:34N 51°58' E 004°03'0 0.0
2015-Jan-16 05:33N 51°58' E 004°03'0 0.0
2015-Jan-16 04:33N 51°58' E 004°03'0 0.0
2015-Jan-16 03:34N 51°58' E 004°03'0 0.0
2015-Jan-16 02:34N 51°58' E 004°03'0 0.0
2015-Jan-16 01:33N 51°58' E 004°03'0 0.0
2015-Jan-16 00:34N 51°58' E 004°03'0 0.0
2015-Jan-15 23:34N 51°58' E 004°03'0 0.4
2015-Jan-15 22:34N 51°58' E 004°02'6 5.9
2015-Jan-15 21:33N 52°00' E 003°54'1211.6
2015-Jan-15 20:30N 52°12' E 003°47'1211.5
2015-Jan-15 19:29N 52°23' E 003°49'1212.2
2015-Jan-15 18:32N 52°35' E 003°53'1313.2
2015-Jan-15 17:33N 52°48' E 003°56'1313.2
2015-Jan-15 16:33N 52°60' E 004°06'7912.1
2015-Jan-15 10:04N 54°13' E 004°52'  

Dump ship's entire track history